sensor_id;sensor_type;location;lat;lon;timestamp;P1;durP1;ratioP1;P2;durP2;ratioP2
76463;SDS011;65301;46.666;20.110;2024-02-26T00:01:40;19.70;;;12.85;;
76463;SDS011;65301;46.666;20.110;2024-02-26T00:04:42;18.58;;;12.88;;
76463;SDS011;65301;46.666;20.110;2024-02-26T00:07:44;19.70;;;13.00;;
76463;SDS011;65301;46.666;20.110;2024-02-26T00:10:46;21.30;;;13.53;;
76463;SDS011;65301;46.666;20.110;2024-02-26T00:13:48;22.50;;;13.68;;
76463;SDS011;65301;46.666;20.110;2024-02-26T00:16:50;21.40;;;13.65;;
76463;SDS011;65301;46.666;20.110;2024-02-26T00:19:52;21.25;;;14.25;;
76463;SDS011;65301;46.666;20.110;2024-02-26T00:22:54;19.57;;;12.47;;
76463;SDS011;65301;46.666;20.110;2024-02-26T00:25:56;21.60;;;13.20;;
76463;SDS011;65301;46.666;20.110;2024-02-26T00:28:59;22.92;;;13.60;;
76463;SDS011;65301;46.666;20.110;2024-02-26T00:32:00;28.35;;;17.27;;
76463;SDS011;65301;46.666;20.110;2024-02-26T00:35:02;24.88;;;15.18;;
76463;SDS011;65301;46.666;20.110;2024-02-26T00:38:04;22.00;;;13.90;;
76463;SDS011;65301;46.666;20.110;2024-02-26T00:41:06;20.53;;;13.43;;
76463;SDS011;65301;46.666;20.110;2024-02-26T00:44:08;23.85;;;13.93;;
76463;SDS011;65301;46.666;20.110;2024-02-26T00:47:10;19.15;;;12.55;;
76463;SDS011;65301;46.666;20.110;2024-02-26T00:50:11;20.13;;;13.73;;
76463;SDS011;65301;46.666;20.110;2024-02-26T00:53:13;24.50;;;13.97;;
76463;SDS011;65301;46.666;20.110;2024-02-26T00:56:15;24.17;;;14.20;;
76463;SDS011;65301;46.666;20.110;2024-02-26T00:59:17;25.15;;;14.52;;
76463;SDS011;65301;46.666;20.110;2024-02-26T01:02:18;20.95;;;12.32;;
76463;SDS011;65301;46.666;20.110;2024-02-26T01:05:20;20.85;;;12.38;;
76463;SDS011;65301;46.666;20.110;2024-02-26T01:08:22;20.37;;;12.57;;
76463;SDS011;65301;46.666;20.110;2024-02-26T01:11:24;20.67;;;13.03;;
76463;SDS011;65301;46.666;20.110;2024-02-26T01:14:26;23.23;;;14.27;;
76463;SDS011;65301;46.666;20.110;2024-02-26T01:17:28;24.58;;;14.13;;
76463;SDS011;65301;46.666;20.110;2024-02-26T01:20:30;26.77;;;14.10;;
76463;SDS011;65301;46.666;20.110;2024-02-26T01:23:32;17.33;;;11.63;;
76463;SDS011;65301;46.666;20.110;2024-02-26T01:26:34;20.93;;;14.10;;
76463;SDS011;65301;46.666;20.110;2024-02-26T01:29:36;22.13;;;14.93;;
76463;SDS011;65301;46.666;20.110;2024-02-26T01:32:37;18.67;;;11.85;;
76463;SDS011;65301;46.666;20.110;2024-02-26T01:35:39;19.33;;;12.13;;
76463;SDS011;65301;46.666;20.110;2024-02-26T01:38:41;22.00;;;11.80;;
76463;SDS011;65301;46.666;20.110;2024-02-26T01:41:43;18.60;;;11.60;;
76463;SDS011;65301;46.666;20.110;2024-02-26T01:44:45;17.73;;;11.35;;
76463;SDS011;65301;46.666;20.110;2024-02-26T01:47:49;18.13;;;11.40;;
76463;SDS011;65301;46.666;20.110;2024-02-26T01:50:52;17.67;;;10.93;;
76463;SDS011;65301;46.666;20.110;2024-02-26T01:53:54;15.90;;;10.77;;
76463;SDS011;65301;46.666;20.110;2024-02-26T01:56:56;19.37;;;11.23;;
76463;SDS011;65301;46.666;20.110;2024-02-26T01:59:59;21.00;;;11.13;;
76463;SDS011;65301;46.666;20.110;2024-02-26T02:03:01;16.00;;;11.25;;
76463;SDS011;65301;46.666;20.110;2024-02-26T02:06:05;18.50;;;11.20;;
76463;SDS011;65301;46.666;20.110;2024-02-26T02:09:08;17.77;;;11.67;;
76463;SDS011;65301;46.666;20.110;2024-02-26T02:12:10;24.57;;;10.70;;
76463;SDS011;65301;46.666;20.110;2024-02-26T02:15:12;15.88;;;9.77;;
76463;SDS011;65301;46.666;20.110;2024-02-26T02:18:14;18.15;;;11.57;;
76463;SDS011;65301;46.666;20.110;2024-02-26T02:21:16;15.18;;;9.85;;
76463;SDS011;65301;46.666;20.110;2024-02-26T02:24:19;19.03;;;11.00;;
76463;SDS011;65301;46.666;20.110;2024-02-26T02:27:21;16.23;;;10.50;;
76463;SDS011;65301;46.666;20.110;2024-02-26T02:30:24;18.17;;;11.15;;
76463;SDS011;65301;46.666;20.110;2024-02-26T02:33:29;21.02;;;10.55;;
76463;SDS011;65301;46.666;20.110;2024-02-26T02:36:31;14.85;;;10.05;;
76463;SDS011;65301;46.666;20.110;2024-02-26T02:39:33;15.93;;;10.13;;
76463;SDS011;65301;46.666;20.110;2024-02-26T02:42:35;16.40;;;10.50;;
76463;SDS011;65301;46.666;20.110;2024-02-26T02:45:36;17.02;;;10.80;;
76463;SDS011;65301;46.666;20.110;2024-02-26T02:48:38;15.55;;;10.50;;
76463;SDS011;65301;46.666;20.110;2024-02-26T02:51:42;19.73;;;11.32;;
76463;SDS011;65301;46.666;20.110;2024-02-26T02:54:44;16.93;;;10.43;;
76463;SDS011;65301;46.666;20.110;2024-02-26T02:57:48;14.27;;;9.70;;
76463;SDS011;65301;46.666;20.110;2024-02-26T03:00:50;17.40;;;10.75;;
76463;SDS011;65301;46.666;20.110;2024-02-26T03:03:52;17.73;;;10.95;;
76463;SDS011;65301;46.666;20.110;2024-02-26T03:06:53;17.35;;;10.73;;
76463;SDS011;65301;46.666;20.110;2024-02-26T03:09:55;17.87;;;10.57;;
76463;SDS011;65301;46.666;20.110;2024-02-26T03:12:57;18.30;;;11.63;;
76463;SDS011;65301;46.666;20.110;2024-02-26T03:16:04;19.38;;;11.02;;
76463;SDS011;65301;46.666;20.110;2024-02-26T03:19:07;16.85;;;10.68;;
76463;SDS011;65301;46.666;20.110;2024-02-26T03:22:09;15.07;;;10.10;;
76463;SDS011;65301;46.666;20.110;2024-02-26T03:25:11;21.87;;;10.63;;
76463;SDS011;65301;46.666;20.110;2024-02-26T03:28:13;17.23;;;11.27;;
76463;SDS011;65301;46.666;20.110;2024-02-26T03:31:15;18.25;;;10.45;;
76463;SDS011;65301;46.666;20.110;2024-02-26T03:34:16;20.60;;;11.25;;
76463;SDS011;65301;46.666;20.110;2024-02-26T03:37:20;19.88;;;10.13;;
76463;SDS011;65301;46.666;20.110;2024-02-26T03:40:22;15.93;;;10.60;;
76463;SDS011;65301;46.666;20.110;2024-02-26T03:43:24;17.30;;;10.03;;
76463;SDS011;65301;46.666;20.110;2024-02-26T03:46:26;18.75;;;11.35;;
76463;SDS011;65301;46.666;20.110;2024-02-26T03:49:27;19.17;;;11.23;;
76463;SDS011;65301;46.666;20.110;2024-02-26T03:52:29;15.75;;;10.55;;
76463;SDS011;65301;46.666;20.110;2024-02-26T03:55:31;17.30;;;10.27;;
76463;SDS011;65301;46.666;20.110;2024-02-26T03:58:33;19.60;;;10.90;;
76463;SDS011;65301;46.666;20.110;2024-02-26T04:01:36;19.35;;;11.02;;
76463;SDS011;65301;46.666;20.110;2024-02-26T04:04:38;17.65;;;10.50;;
76463;SDS011;65301;46.666;20.110;2024-02-26T04:07:40;16.65;;;10.00;;
76463;SDS011;65301;46.666;20.110;2024-02-26T04:10:42;21.30;;;10.27;;
76463;SDS011;65301;46.666;20.110;2024-02-26T04:13:44;14.83;;;9.93;;
76463;SDS011;65301;46.666;20.110;2024-02-26T04:16:51;17.30;;;10.88;;
76463;SDS011;65301;46.666;20.110;2024-02-26T04:19:53;18.35;;;11.57;;
76463;SDS011;65301;46.666;20.110;2024-02-26T04:22:55;19.08;;;11.55;;
76463;SDS011;65301;46.666;20.110;2024-02-26T04:25:57;18.03;;;11.03;;
76463;SDS011;65301;46.666;20.110;2024-02-26T04:28:59;19.00;;;11.80;;
76463;SDS011;65301;46.666;20.110;2024-02-26T04:32:00;17.02;;;11.63;;
76463;SDS011;65301;46.666;20.110;2024-02-26T04:35:02;18.02;;;10.73;;
76463;SDS011;65301;46.666;20.110;2024-02-26T04:38:04;16.58;;;10.60;;
76463;SDS011;65301;46.666;20.110;2024-02-26T04:41:06;14.57;;;10.20;;
76463;SDS011;65301;46.666;20.110;2024-02-26T04:44:08;18.47;;;10.97;;
76463;SDS011;65301;46.666;20.110;2024-02-26T04:47:10;18.77;;;10.90;;
76463;SDS011;65301;46.666;20.110;2024-02-26T04:50:12;16.13;;;11.32;;
76463;SDS011;65301;46.666;20.110;2024-02-26T04:53:14;16.73;;;10.82;;
76463;SDS011;65301;46.666;20.110;2024-02-26T04:56:15;19.20;;;10.73;;
76463;SDS011;65301;46.666;20.110;2024-02-26T04:59:17;17.47;;;10.73;;
76463;SDS011;65301;46.666;20.110;2024-02-26T05:02:20;18.75;;;11.52;;
76463;SDS011;65301;46.666;20.110;2024-02-26T05:05:22;18.17;;;10.80;;
76463;SDS011;65301;46.666;20.110;2024-02-26T05:08:23;15.32;;;10.68;;
76463;SDS011;65301;46.666;20.110;2024-02-26T05:11:25;14.43;;;10.50;;
76463;SDS011;65301;46.666;20.110;2024-02-26T05:14:27;16.53;;;11.27;;
76463;SDS011;65301;46.666;20.110;2024-02-26T05:17:29;20.15;;;12.00;;
76463;SDS011;65301;46.666;20.110;2024-02-26T05:20:31;17.63;;;11.05;;
76463;SDS011;65301;46.666;20.110;2024-02-26T05:23:36;17.13;;;11.00;;
76463;SDS011;65301;46.666;20.110;2024-02-26T05:26:38;17.90;;;12.13;;
76463;SDS011;65301;46.666;20.110;2024-02-26T05:29:40;17.40;;;10.43;;
76463;SDS011;65301;46.666;20.110;2024-02-26T05:32:42;20.38;;;11.65;;
76463;SDS011;65301;46.666;20.110;2024-02-26T05:35:43;18.45;;;12.40;;
76463;SDS011;65301;46.666;20.110;2024-02-26T05:38:46;18.38;;;12.45;;
76463;SDS011;65301;46.666;20.110;2024-02-26T05:41:48;22.27;;;13.60;;
76463;SDS011;65301;46.666;20.110;2024-02-26T05:44:51;21.03;;;11.97;;
76463;SDS011;65301;46.666;20.110;2024-02-26T05:47:53;24.90;;;12.77;;
76463;SDS011;65301;46.666;20.110;2024-02-26T05:50:54;21.70;;;12.63;;
76463;SDS011;65301;46.666;20.110;2024-02-26T05:53:56;20.50;;;13.02;;
76463;SDS011;65301;46.666;20.110;2024-02-26T05:56:59;19.93;;;12.33;;
76463;SDS011;65301;46.666;20.110;2024-02-26T06:00:02;19.33;;;12.23;;
76463;SDS011;65301;46.666;20.110;2024-02-26T06:03:08;20.45;;;12.38;;
76463;SDS011;65301;46.666;20.110;2024-02-26T06:06:10;19.13;;;12.38;;
76463;SDS011;65301;46.666;20.110;2024-02-26T06:09:12;18.55;;;12.18;;
76463;SDS011;65301;46.666;20.110;2024-02-26T06:12:14;19.37;;;12.40;;
76463;SDS011;65301;46.666;20.110;2024-02-26T06:15:16;18.40;;;12.07;;
76463;SDS011;65301;46.666;20.110;2024-02-26T06:18:18;20.15;;;12.00;;
76463;SDS011;65301;46.666;20.110;2024-02-26T06:21:20;17.20;;;12.30;;
76463;SDS011;65301;46.666;20.110;2024-02-26T06:24:22;18.23;;;13.13;;
76463;SDS011;65301;46.666;20.110;2024-02-26T06:27:24;19.67;;;13.00;;
76463;SDS011;65301;46.666;20.110;2024-02-26T06:30:26;18.53;;;13.20;;
76463;SDS011;65301;46.666;20.110;2024-02-26T06:33:28;19.63;;;13.30;;
76463;SDS011;65301;46.666;20.110;2024-02-26T06:36:30;19.67;;;13.13;;
76463;SDS011;65301;46.666;20.110;2024-02-26T06:39:33;19.42;;;13.73;;
76463;SDS011;65301;46.666;20.110;2024-02-26T06:42:35;17.63;;;12.47;;
76463;SDS011;65301;46.666;20.110;2024-02-26T06:45:37;17.67;;;12.97;;
76463;SDS011;65301;46.666;20.110;2024-02-26T06:48:39;19.77;;;13.15;;
76463;SDS011;65301;46.666;20.110;2024-02-26T06:51:41;19.75;;;12.93;;
76463;SDS011;65301;46.666;20.110;2024-02-26T06:54:43;20.38;;;13.35;;
76463;SDS011;65301;46.666;20.110;2024-02-26T06:57:44;16.77;;;12.37;;
76463;SDS011;65301;46.666;20.110;2024-02-26T07:00:46;20.47;;;13.23;;
76463;SDS011;65301;46.666;20.110;2024-02-26T07:03:49;18.30;;;12.75;;
76463;SDS011;65301;46.666;20.110;2024-02-26T07:06:52;19.38;;;12.63;;
76463;SDS011;65301;46.666;20.110;2024-02-26T07:09:57;22.27;;;14.43;;
76463;SDS011;65301;46.666;20.110;2024-02-26T07:12:59;20.53;;;14.30;;
76463;SDS011;65301;46.666;20.110;2024-02-26T07:16:01;20.13;;;13.20;;
76463;SDS011;65301;46.666;20.110;2024-02-26T07:19:03;19.52;;;12.70;;
76463;SDS011;65301;46.666;20.110;2024-02-26T07:22:05;22.05;;;13.55;;
76463;SDS011;65301;46.666;20.110;2024-02-26T07:25:07;20.88;;;13.55;;
76463;SDS011;65301;46.666;20.110;2024-02-26T07:28:10;19.30;;;13.43;;
76463;SDS011;65301;46.666;20.110;2024-02-26T07:31:12;17.93;;;12.87;;
76463;SDS011;65301;46.666;20.110;2024-02-26T07:34:14;20.25;;;13.50;;
76463;SDS011;65301;46.666;20.110;2024-02-26T07:37:16;18.48;;;13.00;;
76463;SDS011;65301;46.666;20.110;2024-02-26T07:40:18;20.27;;;13.05;;
76463;SDS011;65301;46.666;20.110;2024-02-26T07:43:20;28.63;;;15.37;;
76463;SDS011;65301;46.666;20.110;2024-02-26T07:46:23;22.10;;;14.20;;
76463;SDS011;65301;46.666;20.110;2024-02-26T07:49:25;21.67;;;14.88;;
76463;SDS011;65301;46.666;20.110;2024-02-26T07:52:27;18.85;;;13.85;;
76463;SDS011;65301;46.666;20.110;2024-02-26T07:55:39;21.13;;;14.65;;
76463;SDS011;65301;46.666;20.110;2024-02-26T07:58:41;23.37;;;15.20;;
76463;SDS011;65301;46.666;20.110;2024-02-26T08:01:43;20.47;;;14.47;;
76463;SDS011;65301;46.666;20.110;2024-02-26T08:04:48;23.65;;;15.65;;
76463;SDS011;65301;46.666;20.110;2024-02-26T08:07:50;22.83;;;15.73;;
76463;SDS011;65301;46.666;20.110;2024-02-26T08:10:52;26.17;;;15.60;;
76463;SDS011;65301;46.666;20.110;2024-02-26T08:13:54;24.20;;;14.93;;
76463;SDS011;65301;46.666;20.110;2024-02-26T08:16:55;25.13;;;14.87;;
76463;SDS011;65301;46.666;20.110;2024-02-26T08:19:57;22.25;;;14.63;;
76463;SDS011;65301;46.666;20.110;2024-02-26T08:22:59;19.50;;;13.90;;
76463;SDS011;65301;46.666;20.110;2024-02-26T08:26:01;22.38;;;15.18;;
76463;SDS011;65301;46.666;20.110;2024-02-26T08:29:05;23.97;;;17.07;;
76463;SDS011;65301;46.666;20.110;2024-02-26T08:32:07;24.17;;;17.87;;
76463;SDS011;65301;46.666;20.110;2024-02-26T08:35:09;21.40;;;14.90;;
76463;SDS011;65301;46.666;20.110;2024-02-26T08:38:11;31.25;;;13.32;;
76463;SDS011;65301;46.666;20.110;2024-02-26T08:41:12;19.42;;;13.75;;
76463;SDS011;65301;46.666;20.110;2024-02-26T08:44:14;21.97;;;13.47;;
76463;SDS011;65301;46.666;20.110;2024-02-26T08:47:16;22.50;;;14.33;;
76463;SDS011;65301;46.666;20.110;2024-02-26T08:50:18;19.35;;;13.75;;
76463;SDS011;65301;46.666;20.110;2024-02-26T08:53:20;16.60;;;12.85;;
76463;SDS011;65301;46.666;20.110;2024-02-26T08:56:32;18.63;;;12.60;;
76463;SDS011;65301;46.666;20.110;2024-02-26T08:59:33;19.70;;;14.03;;
76463;SDS011;65301;46.666;20.110;2024-02-26T09:02:35;19.40;;;13.67;;
76463;SDS011;65301;46.666;20.110;2024-02-26T09:05:40;25.27;;;13.63;;
76463;SDS011;65301;46.666;20.110;2024-02-26T09:08:41;17.67;;;11.88;;
76463;SDS011;65301;46.666;20.110;2024-02-26T09:11:43;17.92;;;11.60;;
76463;SDS011;65301;46.666;20.110;2024-02-26T09:14:46;15.77;;;10.77;;
76463;SDS011;65301;46.666;20.110;2024-02-26T09:17:50;19.23;;;11.97;;
76463;SDS011;65301;46.666;20.110;2024-02-26T09:20:54;15.25;;;11.25;;
76463;SDS011;65301;46.666;20.110;2024-02-26T09:23:57;15.60;;;11.00;;
76463;SDS011;65301;46.666;20.110;2024-02-26T09:26:58;16.77;;;11.63;;
76463;SDS011;65301;46.666;20.110;2024-02-26T09:30:00;16.60;;;11.63;;
76463;SDS011;65301;46.666;20.110;2024-02-26T09:33:02;15.93;;;11.80;;
76463;SDS011;65301;46.666;20.110;2024-02-26T09:36:05;16.05;;;11.52;;
76463;SDS011;65301;46.666;20.110;2024-02-26T09:39:07;16.58;;;11.68;;
76463;SDS011;65301;46.666;20.110;2024-02-26T09:42:13;22.63;;;13.52;;
76463;SDS011;65301;46.666;20.110;2024-02-26T09:45:18;17.50;;;12.63;;
76463;SDS011;65301;46.666;20.110;2024-02-26T09:48:22;23.77;;;13.10;;
76463;SDS011;65301;46.666;20.110;2024-02-26T09:51:25;19.27;;;12.32;;
76463;SDS011;65301;46.666;20.110;2024-02-26T09:54:27;19.02;;;12.45;;
76463;SDS011;65301;46.666;20.110;2024-02-26T09:57:32;18.27;;;13.55;;
76463;SDS011;65301;46.666;20.110;2024-02-26T10:00:37;19.23;;;12.83;;
76463;SDS011;65301;46.666;20.110;2024-02-26T10:03:40;16.73;;;12.47;;
76463;SDS011;65301;46.666;20.110;2024-02-26T10:06:48;19.42;;;13.13;;
76463;SDS011;65301;46.666;20.110;2024-02-26T10:09:51;17.02;;;12.50;;
76463;SDS011;65301;46.666;20.110;2024-02-26T10:12:53;18.42;;;13.68;;
76463;SDS011;65301;46.666;20.110;2024-02-26T10:15:55;18.33;;;12.60;;
76463;SDS011;65301;46.666;20.110;2024-02-26T10:18:57;17.67;;;12.60;;
76463;SDS011;65301;46.666;20.110;2024-02-26T10:22:01;18.42;;;13.20;;
76463;SDS011;65301;46.666;20.110;2024-02-26T10:25:07;17.80;;;11.90;;
76463;SDS011;65301;46.666;20.110;2024-02-26T10:28:09;19.17;;;12.90;;
76463;SDS011;65301;46.666;20.110;2024-02-26T10:31:11;18.40;;;12.87;;
76463;SDS011;65301;46.666;20.110;2024-02-26T10:34:15;20.90;;;13.83;;
76463;SDS011;65301;46.666;20.110;2024-02-26T10:37:18;20.83;;;13.50;;
76463;SDS011;65301;46.666;20.110;2024-02-26T10:40:20;18.42;;;13.32;;
76463;SDS011;65301;46.666;20.110;2024-02-26T10:43:22;18.00;;;12.52;;
76463;SDS011;65301;46.666;20.110;2024-02-26T10:46:25;18.27;;;12.33;;
76463;SDS011;65301;46.666;20.110;2024-02-26T10:49:27;19.90;;;13.30;;
76463;SDS011;65301;46.666;20.110;2024-02-26T10:52:31;18.88;;;14.02;;
76463;SDS011;65301;46.666;20.110;2024-02-26T10:55:34;18.40;;;13.55;;
76463;SDS011;65301;46.666;20.110;2024-02-26T10:58:41;18.25;;;12.65;;
76463;SDS011;65301;46.666;20.110;2024-02-26T11:01:45;19.10;;;13.07;;
76463;SDS011;65301;46.666;20.110;2024-02-26T11:04:48;16.90;;;12.80;;
76463;SDS011;65301;46.666;20.110;2024-02-26T11:07:51;16.95;;;13.32;;
76463;SDS011;65301;46.666;20.110;2024-02-26T11:10:54;15.57;;;12.27;;
76463;SDS011;65301;46.666;20.110;2024-02-26T11:13:58;18.40;;;11.75;;
76463;SDS011;65301;46.666;20.110;2024-02-26T11:17:02;17.10;;;13.03;;
76463;SDS011;65301;46.666;20.110;2024-02-26T11:20:04;17.67;;;12.40;;
76463;SDS011;65301;46.666;20.110;2024-02-26T11:23:11;17.02;;;13.43;;
76463;SDS011;65301;46.666;20.110;2024-02-26T11:26:14;17.08;;;12.77;;
76463;SDS011;65301;46.666;20.110;2024-02-26T11:29:19;18.38;;;12.95;;
76463;SDS011;65301;46.666;20.110;2024-02-26T11:32:23;16.30;;;12.60;;
76463;SDS011;65301;46.666;20.110;2024-02-26T11:35:25;17.03;;;12.23;;
76463;SDS011;65301;46.666;20.110;2024-02-26T11:38:27;17.23;;;11.60;;
76463;SDS011;65301;46.666;20.110;2024-02-26T11:41:29;15.40;;;11.57;;
76463;SDS011;65301;46.666;20.110;2024-02-26T11:44:31;13.77;;;10.48;;
76463;SDS011;65301;46.666;20.110;2024-02-26T11:47:34;12.63;;;10.27;;
76463;SDS011;65301;46.666;20.110;2024-02-26T11:50:38;15.17;;;9.93;;
76463;SDS011;65301;46.666;20.110;2024-02-26T11:53:45;15.38;;;11.02;;
76463;SDS011;65301;46.666;20.110;2024-02-26T11:56:50;14.80;;;10.40;;
76463;SDS011;65301;46.666;20.110;2024-02-26T11:59:51;18.45;;;10.27;;
76463;SDS011;65301;46.666;20.110;2024-02-26T12:02:55;13.73;;;10.37;;
76463;SDS011;65301;46.666;20.110;2024-02-26T12:06:02;15.93;;;9.87;;
76463;SDS011;65301;46.666;20.110;2024-02-26T12:09:05;15.75;;;10.25;;
76463;SDS011;65301;46.666;20.110;2024-02-26T12:12:08;14.95;;;9.15;;
76463;SDS011;65301;46.666;20.110;2024-02-26T12:15:11;12.70;;;9.07;;
76463;SDS011;65301;46.666;20.110;2024-02-26T12:18:17;12.80;;;8.93;;
76463;SDS011;65301;46.666;20.110;2024-02-26T12:21:20;14.80;;;9.03;;
76463;SDS011;65301;46.666;20.110;2024-02-26T12:24:22;12.98;;;7.93;;
76463;SDS011;65301;46.666;20.110;2024-02-26T12:27:24;9.68;;;8.05;;
76463;SDS011;65301;46.666;20.110;2024-02-26T12:30:26;13.98;;;9.00;;
76463;SDS011;65301;46.666;20.110;2024-02-26T12:33:31;12.67;;;8.57;;
76463;SDS011;65301;46.666;20.110;2024-02-26T12:36:33;15.47;;;9.23;;
76463;SDS011;65301;46.666;20.110;2024-02-26T12:39:40;13.00;;;8.18;;
76463;SDS011;65301;46.666;20.110;2024-02-26T12:42:42;10.77;;;8.60;;
76463;SDS011;65301;46.666;20.110;2024-02-26T12:45:44;12.32;;;8.48;;
76463;SDS011;65301;46.666;20.110;2024-02-26T12:48:47;13.40;;;8.77;;
76463;SDS011;65301;46.666;20.110;2024-02-26T12:51:50;14.13;;;8.97;;
76463;SDS011;65301;46.666;20.110;2024-02-26T12:54:52;11.10;;;8.93;;
76463;SDS011;65301;46.666;20.110;2024-02-26T12:57:54;15.68;;;8.77;;
76463;SDS011;65301;46.666;20.110;2024-02-26T13:00:56;11.88;;;8.80;;
76463;SDS011;65301;46.666;20.110;2024-02-26T13:03:59;12.53;;;8.60;;
76463;SDS011;65301;46.666;20.110;2024-02-26T13:07:05;12.00;;;7.93;;
76463;SDS011;65301;46.666;20.110;2024-02-26T13:10:07;13.02;;;8.60;;
76463;SDS011;65301;46.666;20.110;2024-02-26T13:13:10;13.82;;;8.93;;
76463;SDS011;65301;46.666;20.110;2024-02-26T13:16:13;10.20;;;7.28;;
76463;SDS011;65301;46.666;20.110;2024-02-26T13:19:16;15.00;;;8.23;;
76463;SDS011;65301;46.666;20.110;2024-02-26T13:22:20;12.07;;;7.37;;
76463;SDS011;65301;46.666;20.110;2024-02-26T13:25:22;12.27;;;7.82;;
76463;SDS011;65301;46.666;20.110;2024-02-26T13:28:24;10.93;;;7.65;;
76463;SDS011;65301;46.666;20.110;2024-02-26T13:31:29;10.40;;;7.72;;
76463;SDS011;65301;46.666;20.110;2024-02-26T13:34:31;11.43;;;7.70;;
76463;SDS011;65301;46.666;20.110;2024-02-26T13:37:35;10.13;;;7.37;;
76463;SDS011;65301;46.666;20.110;2024-02-26T13:40:37;11.93;;;7.38;;
76463;SDS011;65301;46.666;20.110;2024-02-26T13:43:40;11.65;;;7.40;;
76463;SDS011;65301;46.666;20.110;2024-02-26T13:46:42;10.18;;;6.85;;
76463;SDS011;65301;46.666;20.110;2024-02-26T13:49:48;10.43;;;7.80;;
76463;SDS011;65301;46.666;20.110;2024-02-26T13:52:54;8.73;;;6.90;;
76463;SDS011;65301;46.666;20.110;2024-02-26T13:55:57;9.82;;;7.03;;
76463;SDS011;65301;46.666;20.110;2024-02-26T13:59:02;11.68;;;7.55;;
76463;SDS011;65301;46.666;20.110;2024-02-26T14:02:04;10.60;;;7.05;;
76463;SDS011;65301;46.666;20.110;2024-02-26T14:05:07;10.93;;;7.83;;
76463;SDS011;65301;46.666;20.110;2024-02-26T14:08:10;10.20;;;7.77;;
76463;SDS011;65301;46.666;20.110;2024-02-26T14:11:12;11.85;;;8.13;;
76463;SDS011;65301;46.666;20.110;2024-02-26T14:14:14;10.35;;;7.53;;
76463;SDS011;65301;46.666;20.110;2024-02-26T14:17:17;11.52;;;7.00;;
76463;SDS011;65301;46.666;20.110;2024-02-26T14:20:19;11.13;;;8.00;;
76463;SDS011;65301;46.666;20.110;2024-02-26T14:23:22;13.40;;;7.60;;
76463;SDS011;65301;46.666;20.110;2024-02-26T14:26:24;9.85;;;7.60;;
76463;SDS011;65301;46.666;20.110;2024-02-26T14:29:26;12.13;;;7.47;;
76463;SDS011;65301;46.666;20.110;2024-02-26T14:32:28;10.15;;;7.75;;
76463;SDS011;65301;46.666;20.110;2024-02-26T14:35:30;12.27;;;7.27;;
76463;SDS011;65301;46.666;20.110;2024-02-26T14:38:32;10.17;;;6.87;;
76463;SDS011;65301;46.666;20.110;2024-02-26T14:41:33;10.15;;;7.38;;
76463;SDS011;65301;46.666;20.110;2024-02-26T14:44:35;10.77;;;7.10;;
76463;SDS011;65301;46.666;20.110;2024-02-26T14:47:37;11.15;;;7.38;;
76463;SDS011;65301;46.666;20.110;2024-02-26T14:50:39;9.07;;;6.73;;
76463;SDS011;65301;46.666;20.110;2024-02-26T14:53:41;11.27;;;7.30;;
76463;SDS011;65301;46.666;20.110;2024-02-26T14:56:43;11.25;;;7.05;;
76463;SDS011;65301;46.666;20.110;2024-02-26T14:59:45;9.82;;;6.78;;
76463;SDS011;65301;46.666;20.110;2024-02-26T15:02:47;11.75;;;7.97;;
76463;SDS011;65301;46.666;20.110;2024-02-26T15:05:57;10.90;;;7.17;;
76463;SDS011;65301;46.666;20.110;2024-02-26T15:08:59;9.77;;;7.60;;
76463;SDS011;65301;46.666;20.110;2024-02-26T15:12:01;12.60;;;7.70;;
76463;SDS011;65301;46.666;20.110;2024-02-26T15:15:04;13.45;;;8.05;;
76463;SDS011;65301;46.666;20.110;2024-02-26T15:18:08;14.52;;;8.65;;
76463;SDS011;65301;46.666;20.110;2024-02-26T15:21:13;15.97;;;10.53;;
76463;SDS011;65301;46.666;20.110;2024-02-26T15:24:16;17.27;;;10.90;;
76463;SDS011;65301;46.666;20.110;2024-02-26T15:27:19;16.23;;;10.95;;
76463;SDS011;65301;46.666;20.110;2024-02-26T15:30:24;18.30;;;10.73;;
76463;SDS011;65301;46.666;20.110;2024-02-26T15:33:26;15.68;;;9.98;;
76463;SDS011;65301;46.666;20.110;2024-02-26T15:36:28;18.30;;;8.60;;
76463;SDS011;65301;46.666;20.110;2024-02-26T15:39:30;21.93;;;10.10;;
76463;SDS011;65301;46.666;20.110;2024-02-26T15:42:33;21.15;;;10.88;;
76463;SDS011;65301;46.666;20.110;2024-02-26T15:45:38;17.30;;;10.80;;
76463;SDS011;65301;46.666;20.110;2024-02-26T15:48:40;16.80;;;11.32;;
76463;SDS011;65301;46.666;20.110;2024-02-26T15:51:42;22.87;;;10.80;;
76463;SDS011;65301;46.666;20.110;2024-02-26T15:54:44;23.17;;;13.33;;
76463;SDS011;65301;46.666;20.110;2024-02-26T15:57:46;31.50;;;16.27;;
76463;SDS011;65301;46.666;20.110;2024-02-26T16:00:48;40.33;;;19.23;;
76463;SDS011;65301;46.666;20.110;2024-02-26T16:03:50;46.03;;;21.35;;
76463;SDS011;65301;46.666;20.110;2024-02-26T16:06:56;50.83;;;23.90;;
76463;SDS011;65301;46.666;20.110;2024-02-26T16:10:01;34.57;;;17.27;;
76463;SDS011;65301;46.666;20.110;2024-02-26T16:13:05;30.27;;;15.45;;
76463;SDS011;65301;46.666;20.110;2024-02-26T16:16:09;32.90;;;17.13;;
76463;SDS011;65301;46.666;20.110;2024-02-26T16:19:16;36.75;;;20.40;;
76463;SDS011;65301;46.666;20.110;2024-02-26T16:22:21;40.80;;;19.83;;
76463;SDS011;65301;46.666;20.110;2024-02-26T16:25:23;41.60;;;21.47;;
76463;SDS011;65301;46.666;20.110;2024-02-26T16:28:25;41.20;;;20.58;;
76463;SDS011;65301;46.666;20.110;2024-02-26T16:31:27;36.65;;;19.58;;
76463;SDS011;65301;46.666;20.110;2024-02-26T16:34:30;37.85;;;18.00;;
76463;SDS011;65301;46.666;20.110;2024-02-26T16:37:33;40.60;;;19.90;;
76463;SDS011;65301;46.666;20.110;2024-02-26T16:40:36;40.37;;;20.77;;
76463;SDS011;65301;46.666;20.110;2024-02-26T16:43:38;36.45;;;18.40;;
76463;SDS011;65301;46.666;20.110;2024-02-26T16:46:40;35.92;;;19.02;;
76463;SDS011;65301;46.666;20.110;2024-02-26T16:49:42;36.55;;;19.50;;
76463;SDS011;65301;46.666;20.110;2024-02-26T16:52:44;35.03;;;18.67;;
76463;SDS011;65301;46.666;20.110;2024-02-26T16:55:46;41.73;;;23.77;;
76463;SDS011;65301;46.666;20.110;2024-02-26T16:58:48;58.03;;;28.95;;
76463;SDS011;65301;46.666;20.110;2024-02-26T17:01:50;70.85;;;34.83;;
76463;SDS011;65301;46.666;20.110;2024-02-26T17:04:52;82.43;;;43.00;;
76463;SDS011;65301;46.666;20.110;2024-02-26T17:07:53;83.77;;;43.00;;
76463;SDS011;65301;46.666;20.110;2024-02-26T17:10:55;82.83;;;40.30;;
76463;SDS011;65301;46.666;20.110;2024-02-26T17:13:57;84.10;;;44.88;;
76463;SDS011;65301;46.666;20.110;2024-02-26T17:16:59;94.03;;;47.88;;
76463;SDS011;65301;46.666;20.110;2024-02-26T17:20:01;94.72;;;50.97;;
76463;SDS011;65301;46.666;20.110;2024-02-26T17:23:05;93.67;;;49.33;;
76463;SDS011;65301;46.666;20.110;2024-02-26T17:26:07;109.33;;;55.37;;
76463;SDS011;65301;46.666;20.110;2024-02-26T17:29:10;94.38;;;50.33;;
76463;SDS011;65301;46.666;20.110;2024-02-26T17:32:12;124.30;;;64.85;;
76463;SDS011;65301;46.666;20.110;2024-02-26T17:35:16;120.13;;;61.05;;